Time;durP1;ratioP1;P1;durP2;ratioP2;P2;SDS_P1;SDS_P2;PMS_P1;PMS_P2;Temp;Humidity;BMP_temperature;BMP_pressure;BME280_temperature;BME280_humidity;BME280_pressure;Samples;Min_cycle;Max_cycle;Signal;HPM_P1;HPM_P2
2022/07/08 00:02:13;;;;;;;3.10;1.85;;;;;;;17.30;84.54;97157.97;5076142;28;20207;-71
2022/07/08 00:04:40;;;;;;;1.77;1.50;;;;;;;17.46;84.81;97155.78;5076644;28;20235;-72
2022/07/08 00:07:07;;;;;;;5.07;2.00;;;;;;;17.46;84.48;97158.44;5077112;28;20235;-72
2022/07/08 00:09:34;;;;;;;2.88;1.88;;;;;;;17.46;84.27;97166.44;5077259;28;20227;-72
2022/07/08 00:12:00;;;;;;;4.10;2.05;;;;;;;17.39;84.65;97154.94;5077013;28;20195;-72
2022/07/08 00:14:27;;;;;;;3.45;1.90;;;;;;;17.55;84.52;97157.25;5076585;28;20200;-72
2022/07/08 00:16:54;;;;;;;1.77;1.60;;;;;;;17.41;84.74;97157.41;5076651;28;20668;-72
2022/07/08 00:19:21;;;;;;;3.58;1.83;;;;;;;17.34;84.76;97162.69;5077305;28;21100;-73
2022/07/08 00:21:50;;;;;;;4.60;2.20;;;;;;;17.40;84.32;97151.25;5077280;28;20412;-72
2022/07/08 00:24:17;;;;;;;4.88;1.90;;;;;;;17.45;84.49;97159.50;5076043;28;20223;-72
2022/07/08 00:26:44;;;;;;;2.20;1.95;;;;;;;17.41;84.75;97158.25;5076907;28;20291;-72
2022/07/08 00:29:11;;;;;;;2.25;2.00;;;;;;;17.39;84.88;97154.94;5077474;28;20254;-72
2022/07/08 00:31:38;;;;;;;2.65;2.10;;;;;;;17.38;84.87;97155.13;5076558;28;20233;-72
2022/07/08 00:34:06;;;;;;;2.60;1.90;;;;;;;17.31;85.03;97157.75;5076675;28;20199;-72
2022/07/08 00:36:34;;;;;;;2.30;1.67;;;;;;;17.24;85.51;97162.22;5076896;28;20200;-72
2022/07/08 00:39:01;;;;;;;2.35;2.03;;;;;;;17.19;85.88;97159.28;5077449;28;20228;-72
2022/07/08 00:41:28;;;;;;;3.08;2.20;;;;;;;17.17;85.68;97160.50;5076320;28;20694;-72
2022/07/08 00:43:55;;;;;;;4.45;2.30;;;;;;;17.15;85.86;97163.34;5076088;28;20726;-70
2022/07/08 00:46:21;;;;;;;6.68;2.45;;;;;;;17.14;85.79;97159.06;5076718;28;20210;-70
2022/07/08 00:48:48;;;;;;;3.60;2.10;;;;;;;17.31;85.61;97156.91;5077347;28;20227;-70
2022/07/08 00:51:18;;;;;;;7.07;2.50;;;;;;;17.31;85.59;97155.09;5076420;28;20253;-70
2022/07/08 00:53:49;;;;;;;3.05;2.03;;;;;;;17.39;85.77;97160.25;5074919;28;20204;-71
2022/07/08 00:56:16;;;;;;;2.90;2.17;;;;;;;17.20;86.07;97160.94;5076240;28;20204;-70
2022/07/08 00:58:43;;;;;;;3.45;2.20;;;;;;;17.22;85.67;97153.59;5076798;28;20200;-70
2022/07/08 01:01:10;;;;;;;2.17;1.98;;;;;;;17.22;85.49;97164.25;5077529;28;20200;-70
2022/07/08 01:03:36;;;;;;;2.65;2.03;;;;;;;17.09;85.91;97168.63;5079447;28;20224;-70
2022/07/08 01:06:03;;;;;;;4.45;2.33;;;;;;;17.08;85.92;97162.50;5079341;28;20203;-70
2022/07/08 01:08:31;;;;;;;2.67;1.83;;;;;;;17.22;85.88;97161.56;5081031;28;20570;-70
2022/07/08 01:10:58;;;;;;;4.10;2.00;;;;;;;17.21;85.47;97162.59;5080566;28;20200;-71
2022/07/08 01:13:26;;;;;;;2.95;2.05;;;;;;;17.20;85.12;97162.78;5079021;28;20200;-70
2022/07/08 01:15:52;;;;;;;4.90;2.42;;;;;;;17.07;85.70;97164.53;5080042;28;21161;-70
2022/07/08 01:18:23;;;;;;;2.45;2.05;;;;;;;17.20;85.33;97163.59;5080286;28;20675;-70
2022/07/08 01:20:51;;;;;;;3.53;2.42;;;;;;;17.10;85.84;97159.63;5079879;28;20220;-70
2022/07/08 01:23:17;;;;;;;4.15;2.38;;;;;;;16.99;85.91;97164.69;5079362;28;20214;-70
2022/07/08 01:25:45;;;;;;;5.40;1.88;;;;;;;17.26;86.12;97160.19;5079936;28;20204;-70
2022/07/08 01:28:11;;;;;;;4.38;2.20;;;;;;;17.21;85.71;97157.25;5080178;28;20200;-70
2022/07/08 01:30:38;;;;;;;4.63;2.40;;;;;;;17.22;85.23;97153.59;5080400;28;20224;-70
2022/07/08 01:33:05;;;;;;;3.22;2.53;;;;;;;17.08;85.55;97157.16;5079003;28;20250;-70
2022/07/08 01:35:32;;;;;;;6.32;2.17;;;;;;;17.12;85.93;97153.09;5080187;28;20196;-70
2022/07/08 01:37:59;;;;;;;2.90;2.35;;;;;;;17.10;85.31;97165.78;5080220;28;20204;-70
2022/07/08 01:40:26;;;;;;;6.38;2.13;;;;;;;17.10;85.98;97167.63;5079833;28;20236;-70
2022/07/08 01:42:52;;;;;;;4.75;2.20;;;;;;;17.09;85.43;97169.47;5078421;28;20203;-70
2022/07/08 01:45:19;;;;;;;5.85;2.25;;;;;;;17.01;85.67;97166.13;5079601;28;20216;-70
2022/07/08 01:47:46;;;;;;;3.38;1.95;;;;;;;16.97;86.62;97174.69;5080012;28;20286;-70
2022/07/08 01:50:12;;;;;;;5.75;2.20;;;;;;;17.03;86.23;97179.25;5079478;28;20280;-70
2022/07/08 01:52:39;;;;;;;5.85;2.00;;;;;;;16.92;82.92;97187.78;5076284;28;20721;-70
2022/07/08 01:55:08;;;;;;;5.57;1.80;;;;;;;16.72;80.50;97202.75;5079441;28;20202;-71
2022/07/08 01:57:35;;;;;;;2.58;1.38;;;;;;;16.38;80.02;97205.31;5079480;28;20211;-70
2022/07/08 02:00:02;;;;;;;2.53;1.38;;;;;;;16.40;78.94;97216.56;5079654;28;20269;-70
2022/07/08 02:02:28;;;;;;;2.67;1.50;;;;;;;16.33;78.46;97218.34;5078474;28;20594;-71
2022/07/08 02:04:55;;;;;;;3.80;1.40;;;;;;;16.36;75.50;97220.63;5079205;28;20234;-70
2022/07/08 02:07:21;;;;;;;4.03;1.35;;;;;;;16.20;74.48;97225.31;5079459;28;20206;-70
2022/07/08 02:09:48;;;;;;;2.13;1.17;;;;;;;15.99;69.41;97231.41;5079423;28;20245;-70
2022/07/08 02:12:21;;;;;;;8.48;1.40;;;;;;;16.01;68.04;97229.41;5078298;28;20719;-71
2022/07/08 02:14:49;;;;;;;3.42;1.10;;;;;;;15.79;68.47;97234.03;5078828;28;20195;-70
2022/07/08 02:17:16;;;;;;;8.75;1.10;;;;;;;15.90;67.33;97235.19;5079916;28;20200;-71
2022/07/08 02:19:43;;;;;;;5.85;1.25;;;;;;;16.09;67.98;97236.47;5079433;28;20223;-70
2022/07/08 02:22:10;;;;;;;7.93;1.27;;;;;;;16.15;66.48;97241.84;5078243;28;20231;-70
2022/07/08 02:24:37;;;;;;;4.90;1.52;;;;;;;15.79;66.88;97244.66;5078249;28;20224;-71
2022/07/08 02:27:05;;;;;;;3.95;1.58;;;;;;;16.01;66.75;97248.00;5079125;28;20211;-71
2022/07/08 02:29:33;;;;;;;5.18;2.10;;;;;;;16.09;66.86;97250.56;5078745;28;20825;-70
2022/07/08 02:32:00;;;;;;;4.95;1.20;;;;;;;16.04;67.34;97249.47;5078942;28;20210;-70
2022/07/08 02:34:27;;;;;;;6.15;1.20;;;;;;;15.72;67.73;97255.19;5077720;28;20202;-71
2022/07/08 02:36:54;;;;;;;3.67;1.10;;;;;;;15.84;67.98;97257.19;5078943;28;20204;-70
2022/07/08 02:39:21;;;;;;;4.30;1.20;;;;;;;16.01;68.19;97256.00;5078610;28;20219;-71
2022/07/08 02:41:49;;;;;;;3.92;1.10;;;;;;;15.81;67.88;97263.88;5078898;28;20203;-71
2022/07/08 02:44:16;;;;;;;8.35;1.65;;;;;;;15.69;67.99;97265.38;5077122;28;20231;-70
2022/07/08 02:46:43;;;;;;;6.05;1.40;;;;;;;15.67;68.27;97270.88;5078815;28;20215;-70
2022/07/08 02:49:10;;;;;;;5.03;1.15;;;;;;;15.59;67.95;97276.28;5078137;28;20730;-71
2022/07/08 02:51:36;;;;;;;4.95;0.90;;;;;;;15.69;67.96;97276.00;5072643;28;20204;-71
2022/07/08 02:54:04;;;;;;;2.83;1.15;;;;;;;15.88;69.42;97273.59;5077596;28;20192;-71
2022/07/08 02:56:31;;;;;;;6.97;1.20;;;;;;;15.83;68.15;97278.63;5078301;28;20214;-71
2022/07/08 02:58:57;;;;;;;3.45;1.20;;;;;;;15.81;67.87;97282.50;5078690;28;20219;-71
2022/07/08 03:01:24;;;;;;;3.78;1.17;;;;;;;15.58;68.22;97289.72;5077989;28;20947;-70
2022/07/08 03:03:52;;;;;;;3.80;1.10;;;;;;;15.89;68.04;97294.69;5077905;28;20207;-70
2022/07/08 03:06:18;;;;;;;4.50;1.05;;;;;;;15.65;68.48;97296.78;5078355;28;20204;-70
2022/07/08 03:08:45;;;;;;;3.42;1.33;;;;;;;16.09;68.01;97284.31;5078144;28;20222;-70
2022/07/08 03:11:12;;;;;;;6.55;1.20;;;;;;;15.82;67.82;97300.09;5077620;28;20748;-70
2022/07/08 03:13:39;;;;;;;2.53;1.10;;;;;;;15.86;69.18;97299.56;5077741;28;20203;-70
2022/07/08 03:16:06;;;;;;;3.55;1.00;;;;;;;15.74;69.51;97310.81;5078214;28;20195;-70
2022/07/08 03:18:33;;;;;;;5.13;0.98;;;;;;;15.78;68.85;97320.06;5077846;28;20668;-70
2022/07/08 03:21:03;;;;;;;4.10;1.15;;;;;;;15.82;68.38;97324.00;5077845;28;20196;-70
2022/07/08 03:23:29;;;;;;;4.13;1.10;;;;;;;15.76;68.91;97322.06;5076670;28;21150;-70
2022/07/08 03:25:56;;;;;;;3.15;1.13;;;;;;;15.70;68.67;97322.81;5076828;28;20223;-70
2022/07/08 03:28:23;;;;;;;3.28;1.30;;;;;;;15.84;68.67;97324.66;5078465;28;20664;-70
2022/07/08 03:30:49;;;;;;;3.92;1.08;;;;;;;15.73;69.26;97328.56;5077549;28;20223;-70
2022/07/08 03:33:16;;;;;;;5.57;1.50;;;;;;;15.71;69.51;97333.28;5077317;28;20226;-70
2022/07/08 03:35:42;;;;;;;4.75;1.33;;;;;;;15.81;68.74;97339.16;5077353;28;20214;-70
2022/07/08 03:38:10;;;;;;;4.10;1.23;;;;;;;15.54;69.93;97344.22;5078323;28;21067;-70
2022/07/08 03:43:21;;;;;;;6.15;1.30;;;;;;;15.52;69.50;97348.91;5076710;28;20207;-70
2022/07/08 03:45:48;;;;;;;6.88;1.63;;;;;;;15.44;70.31;97354.28;5077765;28;20233;-70
2022/07/08 03:48:15;;;;;;;4.65;1.30;;;;;;;15.46;70.47;97357.59;5077538;28;20196;-70
2022/07/08 03:50:42;;;;;;;7.90;1.75;;;;;;;15.55;69.69;97356.50;5077423;28;20232;-70
2022/07/08 03:53:10;;;;;;;5.53;1.35;;;;;;;15.83;68.82;97354.91;5074833;28;20204;-70
2022/07/08 03:55:36;;;;;;;4.63;1.08;;;;;;;15.66;68.80;97362.22;5077633;28;20960;-71
2022/07/08 03:58:03;;;;;;;3.13;1.10;;;;;;;15.58;69.73;97366.78;5077121;28;20200;-71
2022/07/08 04:00:29;;;;;;;8.13;1.35;;;;;;;15.59;70.45;97358.66;5077441;28;21027;-71
2022/07/08 04:02:56;;;;;;;1.88;1.13;;;;;;;15.55;70.32;97364.50;5076357;28;20211;-71
2022/07/08 04:05:22;;;;;;;4.32;1.25;;;;;;;15.53;70.57;97375.31;5076735;28;20226;-71
2022/07/08 04:07:48;;;;;;;7.78;1.65;;;;;;;15.67;70.82;97366.53;5077075;28;20650;-71
2022/07/08 04:10:16;;;;;;;3.47;1.35;;;;;;;15.76;70.67;97372.56;5077904;28;20223;-71
2022/07/08 04:12:43;;;;;;;3.55;1.23;;;;;;;15.57;70.55;97370.47;5076190;28;20211;-71
2022/07/08 04:15:10;;;;;;;6.00;1.20;;;;;;;15.51;70.33;97379.13;5077406;28;20211;-71
2022/07/08 04:17:36;;;;;;;6.32;1.30;;;;;;;15.58;70.11;97375.59;5076908;28;20694;-71
2022/07/08 04:20:04;;;;;;;3.45;1.23;;;;;;;15.69;70.61;97379.63;5077037;28;20227;-71
2022/07/08 04:22:30;;;;;;;6.93;1.23;;;;;;;15.67;71.18;97374.50;5076216;28;20214;-71
2022/07/08 04:24:57;;;;;;;5.78;1.50;;;;;;;15.65;70.73;97381.81;5077399;28;20231;-71
2022/07/08 04:27:25;;;;;;;6.63;1.40;;;;;;;15.73;69.99;97376.41;5075608;28;20208;-71
2022/07/08 04:29:51;;;;;;;4.10;1.50;;;;;;;15.76;69.78;97377.88;5077337;28;20577;-71
2022/07/08 04:32:18;;;;;;;7.90;1.23;;;;;;;15.60;70.69;97391.34;5076532;28;20230;-71
2022/07/08 04:34:45;;;;;;;4.47;1.17;;;;;;;15.73;70.00;97383.56;5076932;28;20231;-71
2022/07/08 04:37:12;;;;;;;7.20;1.30;;;;;;;15.86;71.78;97388.09;5080152;28;20199;-71
2022/07/08 04:39:39;;;;;;;7.25;1.50;;;;;;;15.88;70.62;97383.44;5081684;28;20254;-73
2022/07/08 04:42:06;;;;;;;7.43;1.70;;;;;;;15.88;70.11;97387.91;5081076;28;20199;-73
2022/07/08 04:44:33;;;;;;;5.25;1.27;;;;;;;16.09;69.58;97391.50;5080291;28;21135;-73
2022/07/08 04:47:00;;;;;;;7.63;1.40;;;;;;;16.16;69.71;97394.25;5080778;28;20551;-72
2022/07/08 04:49:26;;;;;;;6.72;1.38;;;;;;;16.30;70.22;97398.78;5081495;28;20223;-73
2022/07/08 04:51:53;;;;;;;12.30;1.48;;;;;;;16.36;71.29;97398.06;5078216;28;20196;-73
2022/07/08 04:54:19;;;;;;;4.47;1.13;;;;;;;16.14;69.00;97404.22;5080479;28;20207;-73
2022/07/08 04:56:46;;;;;;;4.38;1.10;;;;;;;16.19;69.31;97407.19;5080755;28;20216;-72
2022/07/08 04:59:12;;;;;;;7.43;1.58;;;;;;;16.26;67.77;97406.28;5080389;28;20216;-73
2022/07/08 05:01:40;;;;;;;3.72;1.45;;;;;;;16.44;68.26;97405.94;5080959;28;20211;-73
2022/07/08 05:04:07;;;;;;;6.90;1.65;;;;;;;16.22;69.15;97417.47;5079738;28;20207;-72
2022/07/08 05:06:33;;;;;;;8.13;1.65;;;;;;;16.31;68.84;97414.56;5080833;28;20223;-73
2022/07/08 05:08:59;;;;;;;4.32;1.23;;;;;;;15.95;68.61;97420.75;5080272;28;20583;-73
2022/07/08 05:11:26;;;;;;;5.40;1.40;;;;;;;15.80;67.89;97411.91;5080557;28;20735;-72
2022/07/08 05:13:52;;;;;;;5.05;1.20;;;;;;;15.83;69.81;97421.38;5079338;27;20207;-72
2022/07/08 05:16:19;;;;;;;7.47;1.30;;;;;;;16.01;70.01;97415.53;5079997;28;20574;-73
2022/07/08 05:18:47;;;;;;;8.68;1.48;;;;;;;16.23;69.60;97409.31;5079960;28;20212;-72
2022/07/08 05:21:13;;;;;;;5.40;1.42;;;;;;;16.30;69.81;97404.91;5080520;28;20200;-72
2022/07/08 05:23:39;;;;;;;10.70;1.52;;;;;;;16.34;70.00;97405.38;5079067;28;20200;-73
2022/07/08 05:26:06;;;;;;;4.38;1.40;;;;;;;16.13;69.36;97403.41;5079695;28;20727;-72
2022/07/08 05:28:33;;;;;;;4.30;1.35;;;;;;;16.26;68.36;97408.13;5080334;28;20204;-72
2022/07/08 05:30:59;;;;;;;6.53;1.35;;;;;;;16.09;67.77;97412.78;5078907;28;20254;-72
2022/07/08 05:33:26;;;;;;;3.97;1.30;;;;;;;16.08;68.91;97416.44;5079371;28;20200;-72
2022/07/08 05:35:54;;;;;;;2.15;1.25;;;;;;;16.19;67.85;97409.84;5080215;28;20307;-72
2022/07/08 05:38:21;;;;;;;8.95;1.35;;;;;;;16.21;68.05;97415.81;5079742;28;20223;-72
2022/07/08 05:40:47;;;;;;;6.70;1.90;;;;;;;16.03;68.48;97418.81;5079892;28;20223;-73
2022/07/08 05:43:14;;;;;;;4.82;1.35;;;;;;;15.92;68.55;97416.63;5079147;28;20210;-72
2022/07/08 05:45:40;;;;;;;6.15;1.38;;;;;;;15.99;67.97;97417.53;5079401;28;20232;-72
2022/07/08 05:48:07;;;;;;;9.80;1.70;;;;;;;15.97;67.94;97418.72;5078894;28;20204;-73
2022/07/08 05:50:33;;;;;;;4.97;1.52;;;;;;;16.13;68.38;97422.03;5079727;28;20219;-72
2022/07/08 05:53:01;;;;;;;11.05;1.50;;;;;;;16.42;67.65;97421.25;5076522;28;20204;-72
2022/07/08 05:55:28;;;;;;;3.20;1.30;;;;;;;16.21;67.79;97421.94;5079181;28;20203;-73
2022/07/08 05:57:54;;;;;;;6.25;1.30;;;;;;;16.25;66.73;97417.09;5079534;28;20616;-72
2022/07/08 06:00:21;;;;;;;9.65;1.38;;;;;;;16.45;71.82;97428.88;5079622;28;20594;-72
2022/07/08 06:02:49;;;;;;;7.05;1.30;;;;;;;17.06;71.24;97416.72;5078611;28;20298;-73
2022/07/08 06:05:15;;;;;;;5.78;1.40;;;;;;;17.21;65.45;97413.00;5078789;28;20332;-73
2022/07/08 06:07:42;;;;;;;2.60;0.93;;;;;;;17.18;66.29;97418.72;5080214;28;20204;-72
2022/07/08 06:10:10;;;;;;;8.77;1.45;;;;;;;17.74;66.54;97410.66;5079115;28;20226;-73
2022/07/08 06:12:36;;;;;;;4.95;1.10;;;;;;;18.00;64.50;97416.19;5078548;28;20207;-73
2022/07/08 06:15:03;;;;;;;4.20;1.33;;;;;;;18.18;64.54;97415.75;5079072;28;20204;-72
2022/07/08 06:17:30;;;;;;;3.22;1.35;;;;;;;17.69;62.60;97422.91;5079612;28;20200;-73
2022/07/08 06:19:56;;;;;;;2.08;1.00;;;;;;;17.58;63.88;97414.59;5078527;28;20224;-72
2022/07/08 06:22:23;;;;;;;5.35;1.40;;;;;;;17.57;66.47;97424.44;5077974;28;20687;-72
2022/07/08 06:24:49;;;;;;;6.18;1.10;;;;;;;17.34;65.25;97417.69;5078834;28;20207;-72
2022/07/08 06:27:17;;;;;;;4.82;1.73;;;;;;;16.98;66.04;97414.19;5078982;28;20290;-72
2022/07/08 06:29:43;;;;;;;3.97;1.42;;;;;;;16.92;66.27;97420.25;5078182;28;20227;-71
2022/07/08 06:32:10;;;;;;;3.03;1.20;;;;;;;16.60;66.54;97431.31;5078895;28;20196;-72
2022/07/08 06:34:36;;;;;;;5.15;1.20;;;;;;;16.48;67.66;97439.13;5078347;28;20207;-72
2022/07/08 06:37:03;;;;;;;6.28;1.67;;;;;;;16.46;67.54;97436.66;5078368;28;20206;-72
2022/07/08 06:39:29;;;;;;;5.95;1.50;;;;;;;16.25;67.05;97438.38;5078780;28;20223;-72
2022/07/08 06:41:56;;;;;;;2.95;1.17;;;;;;;16.67;67.29;97440.19;5079039;28;20204;-72
2022/07/08 06:44:24;;;;;;;5.57;1.20;;;;;;;17.07;68.23;97436.19;5077973;28;20200;-72
2022/07/08 06:46:50;;;;;;;11.85;1.80;;;;;;;17.07;65.31;97447.69;5078448;28;20227;-72
2022/07/08 06:49:16;;;;;;;10.88;1.63;;;;;;;17.85;64.60;97452.78;5079929;28;20223;-72
2022/07/08 06:51:43;;;;;;;4.10;1.30;;;;;;;18.54;62.55;97450.03;5075217;28;20231;-72
2022/07/08 06:56:54;;;;;;;3.45;1.27;;;;;;;18.46;62.20;97444.84;5077873;28;20206;-72
2022/07/08 06:59:20;;;;;;;2.53;1.13;;;;;;;18.42;61.26;97456.13;5077905;28;21111;-73
2022/07/08 07:01:48;;;;;;;5.30;1.13;;;;;;;18.16;60.95;97455.09;5078504;28;20215;-73
2022/07/08 07:04:15;;;;;;;3.75;1.10;;;;;;;17.75;63.73;97460.28;5077983;28;20203;-72
2022/07/08 07:06:41;;;;;;;4.32;1.08;;;;;;;17.63;64.01;97455.69;5077403;28;20223;-73
2022/07/08 07:09:08;;;;;;;4.38;1.17;;;;;;;18.04;62.73;97460.13;5078705;28;20231;-73
2022/07/08 07:11:35;;;;;;;2.90;1.23;;;;;;;17.96;63.67;97462.09;5078009;28;20664;-72
2022/07/08 07:14:02;;;;;;;5.13;1.25;;;;;;;18.05;64.37;97466.28;5076924;28;20218;-73
2022/07/08 07:16:28;;;;;;;4.88;1.30;;;;;;;17.96;61.00;97468.28;5077567;28;20264;-73
2022/07/08 07:18:56;;;;;;;5.35;1.33;;;;;;;17.78;60.90;97470.59;5077818;28;20226;-72
2022/07/08 07:21:22;;;;;;;7.97;1.30;;;;;;;17.47;62.36;97471.09;5077596;28;20885;-72
2022/07/08 07:23:49;;;;;;;4.80;1.20;;;;;;;17.85;60.79;97467.97;5077364;28;20226;-72
2022/07/08 07:26:15;;;;;;;3.47;1.17;;;;;;;17.92;59.73;97460.84;5078536;28;20219;-72
2022/07/08 07:28:42;;;;;;;2.90;1.00;;;;;;;17.98;58.64;97460.09;5078058;28;20206;-70
2022/07/08 07:31:08;;;;;;;6.10;1.08;;;;;;;17.96;60.93;97459.44;5077802;28;20617;-70
2022/07/08 07:33:35;;;;;;;3.35;1.00;;;;;;;17.96;60.53;97468.28;5076968;28;20198;-70
2022/07/08 07:36:03;;;;;;;7.43;1.10;;;;;;;18.22;57.63;97462.38;5077367;28;20195;-70
2022/07/08 07:38:30;;;;;;;6.15;1.20;;;;;;;18.76;56.72;97454.28;5076446;28;20203;-70
2022/07/08 07:40:56;;;;;;;3.45;0.98;;;;;;;18.51;55.85;97458.44;5077295;28;20605;-69
2022/07/08 07:43:23;;;;;;;5.95;0.80;;;;;;;18.37;56.05;97462.03;5077179;28;20211;-70
2022/07/08 07:45:49;;;;;;;4.80;0.90;;;;;;;18.44;55.63;97462.09;5077530;28;20223;-70
2022/07/08 07:48:16;;;;;;;4.43;1.02;;;;;;;18.33;55.51;97466.13;5077043;28;20203;-70
2022/07/08 07:50:42;;;;;;;3.90;0.85;;;;;;;17.95;55.93;97466.63;5077626;28;20246;-69
2022/07/08 07:53:10;;;;;;;2.60;0.88;;;;;;;18.07;56.46;97469.59;5073457;28;20215;-69
2022/07/08 07:55:37;;;;;;;2.03;1.10;;;;;;;17.96;56.53;97472.78;5077016;28;20211;-70
2022/07/08 07:58:03;;;;;;;6.15;0.90;;;;;;;18.25;57.35;97464.63;5076471;28;20223;-70
2022/07/08 08:00:29;;;;;;;1.60;1.02;;;;;;;18.19;56.49;97470.72;5076060;28;20309;-70
2022/07/08 08:02:56;;;;;;;8.15;1.38;;;;;;;18.69;56.23;97465.94;5075805;28;20219;-70
2022/07/08 08:05:22;;;;;;;1.42;0.68;;;;;;;18.84;56.27;97471.97;5077791;28;20200;-70
2022/07/08 08:07:49;;;;;;;4.63;1.20;;;;;;;18.32;55.52;97476.16;5077399;28;20223;-70
2022/07/08 08:10:17;;;;;;;5.75;1.63;;;;;;;18.32;57.93;97470.81;5076275;28;20215;-70
2022/07/08 08:12:43;;;;;;;8.80;1.40;;;;;;;18.16;55.48;97471.09;5076441;28;20208;-69
2022/07/08 08:15:10;;;;;;;5.35;1.40;;;;;;;18.03;59.07;97481.69;5078117;28;20200;-70
2022/07/08 08:17:37;;;;;;;4.70;1.13;;;;;;;17.94;56.11;97474.81;5077029;28;20291;-70
2022/07/08 08:20:05;;;;;;;4.28;1.10;;;;;;;18.33;57.97;97478.66;5076814;28;20324;-70
2022/07/08 08:22:32;;;;;;;7.75;1.63;;;;;;;18.35;58.28;97480.13;5076964;28;20491;-70
2022/07/08 08:24:58;;;;;;;3.42;1.33;;;;;;;18.70;56.33;97478.25;5077224;28;20207;-70
2022/07/08 08:27:26;;;;;;;5.40;1.08;;;;;;;18.36;57.11;97480.94;5076760;28;20220;-70
2022/07/08 08:29:53;;;;;;;2.95;1.27;;;;;;;17.95;55.74;97479.97;5076816;28;20224;-71
2022/07/08 08:32:19;;;;;;;5.82;1.17;;;;;;;18.24;59.80;97492.31;5076699;28;20196;-70
2022/07/08 08:34:46;;;;;;;5.38;1.20;;;;;;;18.27;59.85;97487.44;5076147;28;20463;-71
2022/07/08 08:37:13;;;;;;;10.13;1.40;;;;;;;18.15;58.26;97488.13;5076621;28;20200;-71
2022/07/08 08:39:40;;;;;;;1.83;1.10;;;;;;;18.42;55.06;97486.31;5076243;28;20227;-71
2022/07/08 08:42:08;;;;;;;5.95;1.15;;;;;;;18.67;56.95;97471.50;5076851;28;20656;-71
2022/07/08 08:44:35;;;;;;;4.13;1.10;;;;;;;18.86;54.96;97478.75;5076180;28;20206;-71
2022/07/08 08:47:03;;;;;;;2.88;1.40;;;;;;;18.81;55.17;97483.88;5074638;28;20219;-71
2022/07/08 08:49:35;;;;;;;4.35;1.27;;;;;;;19.00;56.35;97480.47;5075682;28;20223;-71
2022/07/08 08:52:04;;;;;;;5.85;0.90;;;;;;;18.88;54.85;97470.56;5076229;28;20223;-71
2022/07/08 08:54:34;;;;;;;5.45;0.90;;;;;;;18.43;56.61;97477.28;5075334;28;20582;-71
2022/07/08 08:57:01;;;;;;;2.47;1.20;;;;;;;18.55;55.20;97475.72;5075936;28;20215;-71
2022/07/08 08:59:29;;;;;;;2.83;1.10;;;;;;;18.99;51.90;97468.13;5075673;28;20251;-71
2022/07/08 09:01:58;;;;;;;4.93;1.17;;;;;;;19.23;52.96;97470.31;5076027;28;20223;-71
2022/07/08 09:04:25;;;;;;;1.95;1.10;;;;;;;19.53;51.70;97472.47;5075543;28;20581;-71
2022/07/08 09:06:51;;;;;;;4.70;1.00;;;;;;;18.75;52.98;97475.81;5076026;28;20219;-71
2022/07/08 09:09:18;;;;;;;4.75;1.40;;;;;;;18.27;56.20;97479.44;5076217;28;20441;-71
2022/07/08 09:11:44;;;;;;;3.53;1.30;;;;;;;18.49;54.76;97473.81;5076760;28;20631;-70
2022/07/08 09:14:11;;;;;;;4.57;1.15;;;;;;;18.47;55.69;97465.19;5075150;28;20319;-70
2022/07/08 09:16:38;;;;;;;2.58;0.93;;;;;;;18.61;56.66;97464.25;5076532;28;20212;-71
2022/07/08 09:19:13;;;;;;;3.80;1.30;;;;;;;19.46;54.78;97460.09;5076266;28;20220;-71
2022/07/08 09:21:40;;;;;;;4.10;1.25;;;;;;;19.67;54.47;97455.41;5075822;28;20199;-71
2022/07/08 09:24:18;;;;;;;4.82;1.13;;;;;;;19.60;52.92;97465.25;5078667;28;20210;-71
2022/07/08 09:26:45;;;;;;;7.25;1.67;;;;;;;19.26;52.63;97472.59;5080888;28;20717;-71
2022/07/08 09:29:12;;;;;;;3.67;1.05;;;;;;;19.46;52.70;97468.13;5079953;28;20222;-70
2022/07/08 09:31:39;;;;;;;1.85;1.00;;;;;;;19.64;52.81;97475.38;5079113;28;20235;-71
2022/07/08 09:34:10;;;;;;;2.10;1.10;;;;;;;19.20;52.19;97468.06;5079602;28;20248;-71
2022/07/08 09:36:46;;;;;;;3.90;1.27;;;;;;;19.19;51.98;97469.88;5079056;28;20216;-71
2022/07/08 09:39:23;;;;;;;3.33;1.17;;;;;;;19.39;51.60;97464.63;5078771;28;20347;-70
2022/07/08 09:41:50;;;;;;;2.15;0.95;;;;;;;20.00;50.48;97469.69;5078254;28;20599;-71
2022/07/08 09:44:19;;;;;;;2.42;0.85;;;;;;;20.56;48.46;97477.88;5078676;28;20203;-71
2022/07/08 09:46:46;;;;;;;4.75;1.17;;;;;;;20.89;47.28;97479.47;5077650;28;20223;-71
2022/07/08 09:49:27;;;;;;;2.78;1.10;;;;;;;21.28;45.29;97473.94;5079691;28;20219;-71
2022/07/08 09:51:56;;;;;;;3.17;1.00;;;;;;;21.04;46.27;97477.34;5079618;28;20195;-71
2022/07/08 09:54:23;;;;;;;2.15;1.27;;;;;;;20.78;47.18;97475.78;5078509;28;20227;-71
2022/07/08 09:56:58;;;;;;;2.53;1.40;;;;;;;20.27;50.46;97483.66;5079654;28;20582;-71
2022/07/08 09:59:25;;;;;;;3.42;1.30;;;;;;;20.36;51.23;97484.28;5079232;28;20222;-71
2022/07/08 10:01:52;;;;;;;3.25;1.33;;;;;;;20.18;52.95;97493.97;5079522;28;21152;-71
2022/07/08 10:04:19;;;;;;;4.57;1.25;;;;;;;19.80;51.69;97484.84;5078789;28;20203;-71
2022/07/08 10:06:46;;;;;;;2.45;0.90;;;;;;;19.84;52.71;97486.09;5079292;28;20265;-71
2022/07/08 10:09:15;;;;;;;3.25;1.30;;;;;;;20.70;49.68;97478.69;5079568;28;20677;-71
2022/07/08 10:11:42;;;;;;;5.35;1.60;;;;;;;20.46;48.90;97487.38;5078784;28;20295;-71
2022/07/08 10:14:09;;;;;;;5.03;1.30;;;;;;;20.33;46.42;97482.03;5079041;28;20204;-71
2022/07/08 10:16:37;;;;;;;4.50;1.25;;;;;;;20.58;52.96;97480.34;5078954;28;20535;-71
2022/07/08 10:19:08;;;;;;;6.97;1.33;;;;;;;20.44;50.74;97486.72;5079139;28;20699;-71
2022/07/08 10:21:38;;;;;;;2.70;1.10;;;;;;;20.56;55.40;97493.94;5079235;28;20203;-71
2022/07/08 10:24:08;;;;;;;3.92;0.98;;;;;;;20.40;52.29;97482.84;5078520;28;20201;-71
2022/07/08 10:26:40;;;;;;;3.08;1.00;;;;;;;19.97;53.01;97492.31;5078636;28;20235;-71
2022/07/08 10:29:07;;;;;;;6.18;1.08;;;;;;;19.66;51.48;97486.66;5079739;28;21013;-71
2022/07/08 10:31:42;;;;;;;3.83;1.50;;;;;;;19.56;52.88;97487.28;5078604;28;21087;-72
2022/07/08 10:34:09;;;;;;;3.63;1.30;;;;;;;19.99;50.51;97495.59;5077953;28;20199;-71
2022/07/08 10:36:47;;;;;;;6.47;1.42;;;;;;;20.82;50.41;97493.09;5078595;28;20196;-71
2022/07/08 10:39:14;;;;;;;5.60;1.58;;;;;;;20.86;50.16;97487.94;5078990;28;20227;-71
2022/07/08 10:41:57;;;;;;;4.22;1.10;;;;;;;20.80;50.53;97489.78;5078432;28;20223;-71
2022/07/08 10:44:49;;;;;;;1.33;0.90;;;;;;;22.10;50.14;97476.34;5077980;28;20235;-71
2022/07/08 10:47:17;;;;;;;4.55;1.15;;;;;;;22.36;51.96;97478.81;5075623;28;20220;-71
2022/07/08 10:49:45;;;;;;;4.45;1.23;;;;;;;21.92;50.15;97482.66;5078514;28;20748;-71
2022/07/08 10:52:12;;;;;;;3.80;1.00;;;;;;;21.16;50.55;97485.56;5077331;28;20634;-71
2022/07/08 10:54:39;;;;;;;8.40;1.30;;;;;;;20.65;48.43;97498.03;5078453;28;20203;-71
2022/07/08 10:57:27;;;;;;;5.68;1.40;;;;;;;20.50;50.17;97493.94;5077840;28;20196;-71
2022/07/08 11:00:07;;;;;;;2.50;1.10;;;;;;;21.26;48.46;97488.63;5078688;28;20220;-71
2022/07/08 11:02:38;;;;;;;6.07;1.42;;;;;;;21.01;48.09;97485.81;5077545;28;20226;-71
2022/07/08 11:05:05;;;;;;;10.70;1.83;;;;;;;21.21;47.89;97489.25;5078082;28;20210;-71
2022/07/08 11:07:33;;;;;;;5.20;1.20;;;;;;;21.70;50.75;97484.06;5078723;28;20228;-72
2022/07/08 11:10:04;;;;;;;3.60;1.13;;;;;;;22.12;49.87;97482.31;5078925;28;20604;-71
2022/07/08 11:12:33;;;;;;;3.22;1.10;;;;;;;22.32;48.46;97474.94;5077586;28;20200;-71
2022/07/08 11:15:01;;;;;;;3.22;1.30;;;;;;;22.22;48.53;97479.97;5077881;28;20683;-71
2022/07/08 11:17:30;;;;;;;4.85;1.20;;;;;;;22.11;46.38;97480.66;5078162;28;20204;-71
2022/07/08 11:19:58;;;;;;;3.08;1.17;;;;;;;23.02;45.31;97472.59;5077471;28;20330;-71
2022/07/08 11:22:26;;;;;;;4.30;1.02;;;;;;;21.96;45.69;97475.81;5077211;28;20207;-71
2022/07/08 11:24:54;;;;;;;3.05;1.25;;;;;;;22.91;46.58;97472.47;5078111;28;20577;-71
2022/07/08 11:27:26;;;;;;;3.42;1.20;;;;;;;22.83;47.68;97468.22;5077667;28;20304;-71
2022/07/08 11:29:55;;;;;;;2.83;1.00;;;;;;;22.55;45.05;97467.06;5078206;28;20335;-71
2022/07/08 11:32:23;;;;;;;6.32;1.42;;;;;;;21.74;45.00;97467.31;5077254;28;20200;-71
2022/07/08 11:34:50;;;;;;;3.03;1.15;;;;;;;21.63;46.62;97470.69;5077329;28;20206;-71
2022/07/08 11:37:17;;;;;;;3.50;1.35;;;;;;;21.48;46.16;97463.94;5077472;28;20196;-71
2022/07/08 11:39:45;;;;;;;3.42;1.10;;;;;;;22.46;47.14;97464.91;5077240;28;20343;-72
2022/07/08 11:42:12;;;;;;;2.65;1.30;;;;;;;22.13;47.00;97469.72;5077580;28;20207;-71